Bernardo, New Mexico
Current Conditions -  °F | °C
As of 7:35 AM on Thursday 27 Nov 2014 (Local Time) from KE80 Reporting Station
Clear Clear  
Wind Chill: 23°   Ceiling: Unl
Heat Index: 31°   Visibility: 10mi
Dew Point: 19°   Wind: 8mph
Humidity: 61%   Direction: 310°NW
Pressure: 30.47"   Gusts: NA
Location:  34.4828°N, 106.804°W
Report Text: KE80 271435Z AUTO 31007KT 10SM CLR M01/M07 A3047 RMK AO2 T10071073
Loading
Personal Weather Stations






























Interactive Weather Map New forecast layout! Learn more

10-Day Weather Forecast

Advertisements
Track Severe Weather on mobile